sensor_id;sensor_type;location;lat;lon;timestamp;pressure;altitude;pressure_sealevel;temperature;humidity
7990;BME280;4040;42.848;23.034;2022-07-10T00:05:04;94866.91;;;15.55;100.00
7990;BME280;4040;42.848;23.034;2022-07-10T00:10:54;94866.25;;;15.63;100.00
7990;BME280;4040;42.848;23.034;2022-07-10T00:16:42;94872.19;;;15.58;100.00
7990;BME280;4040;42.848;23.034;2022-07-10T00:22:31;94867.22;;;15.57;100.00
7990;BME280;4040;42.848;23.034;2022-07-10T00:28:21;94870.03;;;15.53;100.00
7990;BME280;4040;42.848;23.034;2022-07-10T00:34:10;94855.00;;;15.36;100.00
7990;BME280;4040;42.848;23.034;2022-07-10T00:39:59;94854.50;;;15.25;100.00
7990;BME280;4040;42.848;23.034;2022-07-10T00:45:50;94846.91;;;15.21;100.00
7990;BME280;4040;42.848;23.034;2022-07-10T00:51:38;94840.78;;;15.17;100.00
7990;BME280;4040;42.848;23.034;2022-07-10T00:57:27;94846.78;;;14.96;100.00
7990;BME280;4040;42.848;23.034;2022-07-10T01:03:18;94852.09;;;14.71;100.00
7990;BME280;4040;42.848;23.034;2022-07-10T01:09:06;94842.19;;;14.64;100.00
7990;BME280;4040;42.848;23.034;2022-07-10T01:14:55;94846.69;;;14.71;100.00
7990;BME280;4040;42.848;23.034;2022-07-10T01:20:46;94837.28;;;14.75;100.00
7990;BME280;4040;42.848;23.034;2022-07-10T01:26:37;94783.28;;;14.52;100.00
7990;BME280;4040;42.848;23.034;2022-07-10T01:32:36;94835.09;;;14.99;100.00
7990;BME280;4040;42.848;23.034;2022-07-10T01:38:25;94795.72;;;14.66;100.00
7990;BME280;4040;42.848;23.034;2022-07-10T01:44:16;94819.09;;;14.60;100.00
7990;BME280;4040;42.848;23.034;2022-07-10T01:50:05;94825.16;;;14.64;100.00
7990;BME280;4040;42.848;23.034;2022-07-10T01:55:54;94820.69;;;14.57;100.00
7990;BME280;4040;42.848;23.034;2022-07-10T02:01:44;94815.09;;;14.64;100.00
7990;BME280;4040;42.848;23.034;2022-07-10T02:11:34;94811.06;;;14.40;100.00
7990;BME280;4040;42.848;23.034;2022-07-10T02:17:25;94818.41;;;14.56;100.00
7990;BME280;4040;42.848;23.034;2022-07-10T02:23:14;94804.34;;;14.61;100.00
7990;BME280;4040;42.848;23.034;2022-07-10T02:29:03;94813.50;;;14.67;100.00
7990;BME280;4040;42.848;23.034;2022-07-10T02:34:53;94807.53;;;14.72;100.00
7990;BME280;4040;42.848;23.034;2022-07-10T02:40:42;94810.34;;;14.68;100.00
7990;BME280;4040;42.848;23.034;2022-07-10T02:46:31;94807.91;;;14.42;100.00
7990;BME280;4040;42.848;23.034;2022-07-10T02:52:21;94809.78;;;14.29;100.00
7990;BME280;4040;42.848;23.034;2022-07-10T02:58:09;94814.63;;;14.21;100.00
7990;BME280;4040;42.848;23.034;2022-07-10T03:03:58;94821.50;;;14.26;100.00
7990;BME280;4040;42.848;23.034;2022-07-10T03:14:01;94818.59;;;14.33;100.00
7990;BME280;4040;42.848;23.034;2022-07-10T03:19:50;94831.13;;;14.43;100.00
7990;BME280;4040;42.848;23.034;2022-07-10T03:25:39;94811.66;;;14.48;100.00
7990;BME280;4040;42.848;23.034;2022-07-10T03:31:30;94820.03;;;14.53;100.00
7990;BME280;4040;42.848;23.034;2022-07-10T03:37:19;94813.03;;;14.84;100.00
7990;BME280;4040;42.848;23.034;2022-07-10T03:43:07;94821.00;;;15.04;100.00
7990;BME280;4040;42.848;23.034;2022-07-10T03:48:58;94825.84;;;15.24;100.00
7990;BME280;4040;42.848;23.034;2022-07-10T03:54:46;94817.25;;;15.54;100.00
7990;BME280;4040;42.848;23.034;2022-07-10T04:00:36;94818.47;;;15.78;100.00
7990;BME280;4040;42.848;23.034;2022-07-10T04:06:28;94808.69;;;15.68;100.00
7990;BME280;4040;42.848;23.034;2022-07-10T04:08:55;94799.81;;;15.68;100.00
7990;BME280;4040;42.848;23.034;2022-07-10T04:14:44;94796.75;;;15.91;100.00
7990;BME280;4040;42.848;23.034;2022-07-10T04:20:34;94792.53;;;15.77;100.00
7990;BME280;4040;42.848;23.034;2022-07-10T04:26:24;94796.31;;;16.17;100.00
7990;BME280;4040;42.848;23.034;2022-07-10T04:32:13;94787.94;;;16.24;100.00
7990;BME280;4040;42.848;23.034;2022-07-10T04:38:02;94801.19;;;16.47;100.00
7990;BME280;4040;42.848;23.034;2022-07-10T04:43:53;94798.38;;;16.38;100.00
7990;BME280;4040;42.848;23.034;2022-07-10T04:49:41;94800.09;;;16.32;100.00
7990;BME280;4040;42.848;23.034;2022-07-10T04:55:30;94795.13;;;16.43;100.00
7990;BME280;4040;42.848;23.034;2022-07-10T05:01:21;94797.84;;;16.77;100.00
7990;BME280;4040;42.848;23.034;2022-07-10T05:07:09;94799.34;;;16.78;100.00
7990;BME280;4040;42.848;23.034;2022-07-10T05:09:36;94793.81;;;17.03;100.00
7990;BME280;4040;42.848;23.034;2022-07-10T05:15:25;94797.69;;;17.36;100.00
7990;BME280;4040;42.848;23.034;2022-07-10T05:21:15;94794.38;;;17.93;100.00
7990;BME280;4040;42.848;23.034;2022-07-10T05:27:05;94780.75;;;18.41;100.00
7990;BME280;4040;42.848;23.034;2022-07-10T05:32:54;94777.59;;;18.61;100.00
7990;BME280;4040;42.848;23.034;2022-07-10T05:38:44;94776.72;;;18.82;100.00
7990;BME280;4040;42.848;23.034;2022-07-10T05:44:32;94764.91;;;19.21;100.00
7990;BME280;4040;42.848;23.034;2022-07-10T05:50:21;94755.16;;;19.47;100.00
7990;BME280;4040;42.848;23.034;2022-07-10T05:56:11;94746.03;;;19.59;100.00
7990;BME280;4040;42.848;23.034;2022-07-10T06:02:00;94738.16;;;19.43;100.00
7990;BME280;4040;42.848;23.034;2022-07-10T06:07:49;94736.88;;;20.82;100.00
7990;BME280;4040;42.848;23.034;2022-07-10T06:13:40;94740.00;;;21.71;100.00
7990;BME280;4040;42.848;23.034;2022-07-10T06:19:28;94722.25;;;23.92;100.00
7990;BME280;4040;42.848;23.034;2022-07-10T06:25:17;94717.25;;;24.27;100.00
7990;BME280;4040;42.848;23.034;2022-07-10T06:31:07;94723.84;;;23.42;100.00
7990;BME280;4040;42.848;23.034;2022-07-10T06:36:56;94721.81;;;22.37;100.00
7990;BME280;4040;42.848;23.034;2022-07-10T06:42:45;94730.84;;;22.58;100.00
7990;BME280;4040;42.848;23.034;2022-07-10T06:48:36;94727.91;;;23.52;100.00
7990;BME280;4040;42.848;23.034;2022-07-10T06:54:26;94728.16;;;24.47;100.00
7990;BME280;4040;42.848;23.034;2022-07-10T07:00:15;94725.41;;;26.97;69.20
7990;BME280;4040;42.848;23.034;2022-07-10T07:06:06;94712.50;;;27.62;63.75
7990;BME280;4040;42.848;23.034;2022-07-10T07:16:06;94699.28;;;28.86;58.26
7990;BME280;4040;42.848;23.034;2022-07-10T07:21:58;94695.84;;;27.73;60.91
7990;BME280;4040;42.848;23.034;2022-07-10T07:24:39;94704.63;;;28.07;61.65
7990;BME280;4040;42.848;23.034;2022-07-10T07:30:28;94700.34;;;28.35;58.51
7990;BME280;4040;42.848;23.034;2022-07-10T07:36:17;94704.84;;;28.38;59.15
7990;BME280;4040;42.848;23.034;2022-07-10T07:42:07;94690.28;;;28.80;57.82
7990;BME280;4040;42.848;23.034;2022-07-10T07:47:57;94685.22;;;27.77;57.64
7990;BME280;4040;42.848;23.034;2022-07-10T07:53:46;94690.94;;;28.44;55.48
7990;BME280;4040;42.848;23.034;2022-07-10T07:59:36;94689.94;;;27.88;55.54
7990;BME280;4040;42.848;23.034;2022-07-10T08:05:27;94696.78;;;27.81;56.00
7990;BME280;4040;42.848;23.034;2022-07-10T08:11:16;94689.94;;;25.35;60.20
7990;BME280;4040;42.848;23.034;2022-07-10T08:17:06;94704.16;;;24.11;70.93
7990;BME280;4040;42.848;23.034;2022-07-10T08:22:54;94692.50;;;23.90;76.20
7990;BME280;4040;42.848;23.034;2022-07-10T08:28:43;94692.00;;;23.92;70.40
7990;BME280;4040;42.848;23.034;2022-07-10T08:34:33;94693.31;;;24.02;68.93
7990;BME280;4040;42.848;23.034;2022-07-10T08:40:22;94686.50;;;26.84;63.53
7990;BME280;4040;42.848;23.034;2022-07-10T08:46:12;94692.91;;;29.15;51.27
7990;BME280;4040;42.848;23.034;2022-07-10T08:52:05;94681.41;;;30.11;48.45
7990;BME280;4040;42.848;23.034;2022-07-10T08:57:54;94679.72;;;30.47;49.65
7990;BME280;4040;42.848;23.034;2022-07-10T09:03:44;94671.19;;;30.71;48.58
7990;BME280;4040;42.848;23.034;2022-07-10T09:09:51;94672.84;;;31.13;47.00
7990;BME280;4040;42.848;23.034;2022-07-10T09:15:48;94651.03;;;28.76;49.77
7990;BME280;4040;42.848;23.034;2022-07-10T09:21:37;94671.84;;;28.83;52.49
7990;BME280;4040;42.848;23.034;2022-07-10T09:27:27;94668.31;;;29.06;51.89
7990;BME280;4040;42.848;23.034;2022-07-10T09:33:17;94669.06;;;30.77;47.48
7990;BME280;4040;42.848;23.034;2022-07-10T09:39:09;94665.72;;;32.25;45.06
7990;BME280;4040;42.848;23.034;2022-07-10T09:45:19;94670.72;;;30.15;46.90
7990;BME280;4040;42.848;23.034;2022-07-10T09:51:11;94672.66;;;30.46;46.44
7990;BME280;4040;42.848;23.034;2022-07-10T09:57:02;94676.69;;;30.19;44.80
7990;BME280;4040;42.848;23.034;2022-07-10T10:02:57;94674.66;;;29.20;49.24
7990;BME280;4040;42.848;23.034;2022-07-10T10:08:51;94674.97;;;27.67;51.58
7990;BME280;4040;42.848;23.034;2022-07-10T10:19:03;94675.00;;;27.96;53.48
7990;BME280;4040;42.848;23.034;2022-07-10T10:25:09;94668.22;;;28.69;54.67
7990;BME280;4040;42.848;23.034;2022-07-10T10:30:59;94665.63;;;27.75;51.43
7990;BME280;4040;42.848;23.034;2022-07-10T10:36:50;94652.91;;;28.44;51.97
7990;BME280;4040;42.848;23.034;2022-07-10T10:42:40;94652.44;;;29.88;49.76
7990;BME280;4040;42.848;23.034;2022-07-10T10:48:30;94665.06;;;29.02;47.42
7990;BME280;4040;42.848;23.034;2022-07-10T10:54:21;94658.44;;;27.91;53.80
7990;BME280;4040;42.848;23.034;2022-07-10T11:00:12;94650.84;;;27.32;53.04
7990;BME280;4040;42.848;23.034;2022-07-10T11:06:04;94650.09;;;26.80;55.09
7990;BME280;4040;42.848;23.034;2022-07-10T11:12:03;94655.97;;;26.49;52.87
7990;BME280;4040;42.848;23.034;2022-07-10T11:17:58;94638.69;;;26.33;54.22
7990;BME280;4040;42.848;23.034;2022-07-10T11:23:55;94633.22;;;26.22;52.32
7990;BME280;4040;42.848;23.034;2022-07-10T11:29:47;94631.94;;;26.34;53.48
7990;BME280;4040;42.848;23.034;2022-07-10T11:35:45;94633.47;;;26.24;54.70
7990;BME280;4040;42.848;23.034;2022-07-10T11:41:41;94635.94;;;26.27;50.95
7990;BME280;4040;42.848;23.034;2022-07-10T11:47:32;94637.78;;;26.03;51.77
7990;BME280;4040;42.848;23.034;2022-07-10T11:53:24;94644.53;;;26.02;51.74
7990;BME280;4040;42.848;23.034;2022-07-10T11:59:14;94635.78;;;25.98;52.67
7990;BME280;4040;42.848;23.034;2022-07-10T12:05:05;94647.81;;;26.06;47.04
7990;BME280;4040;42.848;23.034;2022-07-10T12:10:55;94639.28;;;25.60;46.08
7990;BME280;4040;42.848;23.034;2022-07-10T12:20:58;94648.72;;;24.93;44.53
7990;BME280;4040;42.848;23.034;2022-07-10T12:26:48;94652.31;;;25.21;50.07
7990;BME280;4040;42.848;23.034;2022-07-10T12:32:37;94648.03;;;25.14;48.54
7990;BME280;4040;42.848;23.034;2022-07-10T12:38:28;94644.81;;;25.60;47.78
7990;BME280;4040;42.848;23.034;2022-07-10T12:44:32;94647.31;;;25.36;47.72
7990;BME280;4040;42.848;23.034;2022-07-10T12:50:23;94637.94;;;24.95;48.61
7990;BME280;4040;42.848;23.034;2022-07-10T12:56:30;94616.03;;;24.53;47.56
7990;BME280;4040;42.848;23.034;2022-07-10T13:02:20;94631.41;;;24.81;52.41
7990;BME280;4040;42.848;23.034;2022-07-10T13:08:44;94642.06;;;24.52;46.68
7990;BME280;4040;42.848;23.034;2022-07-10T13:14:35;94634.50;;;24.36;48.64
7990;BME280;4040;42.848;23.034;2022-07-10T13:20:23;94615.59;;;24.60;47.03
7990;BME280;4040;42.848;23.034;2022-07-10T13:26:12;94627.19;;;24.33;48.43
7990;BME280;4040;42.848;23.034;2022-07-10T13:32:03;94632.72;;;23.91;47.97
7990;BME280;4040;42.848;23.034;2022-07-10T13:37:52;94585.94;;;23.49;49.21
7990;BME280;4040;42.848;23.034;2022-07-10T13:43:41;94626.31;;;23.68;50.24
7990;BME280;4040;42.848;23.034;2022-07-10T13:49:31;94637.28;;;23.94;51.89
7990;BME280;4040;42.848;23.034;2022-07-10T13:55:20;94645.72;;;24.32;53.72
7990;BME280;4040;42.848;23.034;2022-07-10T14:01:08;94631.91;;;24.74;51.59
7990;BME280;4040;42.848;23.034;2022-07-10T14:06:59;94643.06;;;24.49;51.38
7990;BME280;4040;42.848;23.034;2022-07-10T14:12:47;94635.72;;;24.35;50.18
7990;BME280;4040;42.848;23.034;2022-07-10T14:22:19;94631.25;;;24.43;50.67
7990;BME280;4040;42.848;23.034;2022-07-10T14:28:09;94639.88;;;24.19;51.34
7990;BME280;4040;42.848;23.034;2022-07-10T14:34:00;94632.72;;;24.38;53.37
7990;BME280;4040;42.848;23.034;2022-07-10T14:39:50;94631.09;;;24.63;53.17
7990;BME280;4040;42.848;23.034;2022-07-10T14:45:39;94642.34;;;24.54;50.47
7990;BME280;4040;42.848;23.034;2022-07-10T14:51:28;94629.94;;;24.33;50.93
7990;BME280;4040;42.848;23.034;2022-07-10T14:57:18;94630.84;;;24.55;51.05
7990;BME280;4040;42.848;23.034;2022-07-10T15:03:07;94635.38;;;24.69;48.43
7990;BME280;4040;42.848;23.034;2022-07-10T15:08:56;94650.50;;;23.95;52.68
7990;BME280;4040;42.848;23.034;2022-07-10T15:14:46;94658.47;;;23.57;55.96
7990;BME280;4040;42.848;23.034;2022-07-10T15:24:37;94655.25;;;22.82;59.05
7990;BME280;4040;42.848;23.034;2022-07-10T15:30:28;94667.84;;;22.94;59.86
7990;BME280;4040;42.848;23.034;2022-07-10T15:36:16;94673.16;;;22.78;59.23
7990;BME280;4040;42.848;23.034;2022-07-10T15:42:06;94679.94;;;22.22;53.19
7990;BME280;4040;42.848;23.034;2022-07-10T15:47:56;94685.44;;;21.88;54.25
7990;BME280;4040;42.848;23.034;2022-07-10T15:53:45;94694.44;;;21.59;57.95
7990;BME280;4040;42.848;23.034;2022-07-10T15:59:34;94693.03;;;21.64;59.66
7990;BME280;4040;42.848;23.034;2022-07-10T16:05:24;94682.69;;;21.88;62.86
7990;BME280;4040;42.848;23.034;2022-07-10T16:11:13;94685.50;;;21.93;59.90
7990;BME280;4040;42.848;23.034;2022-07-10T16:17:03;94698.75;;;21.95;62.49
7990;BME280;4040;42.848;23.034;2022-07-10T16:27:06;94713.53;;;21.25;66.70
7990;BME280;4040;42.848;23.034;2022-07-10T16:32:55;94711.66;;;21.16;71.57
7990;BME280;4040;42.848;23.034;2022-07-10T16:38:44;94719.72;;;20.96;77.43
7990;BME280;4040;42.848;23.034;2022-07-10T16:44:34;94716.63;;;20.66;79.75
7990;BME280;4040;42.848;23.034;2022-07-10T16:50:23;94703.53;;;20.46;88.22
7990;BME280;4040;42.848;23.034;2022-07-10T16:56:11;94721.91;;;20.46;91.51
7990;BME280;4040;42.848;23.034;2022-07-10T17:02:02;94725.38;;;20.32;95.42
7990;BME280;4040;42.848;23.034;2022-07-10T17:07:51;94720.31;;;20.07;100.00
7990;BME280;4040;42.848;23.034;2022-07-10T17:13:40;94737.41;;;20.25;100.00
7990;BME280;4040;42.848;23.034;2022-07-10T17:19:30;94728.97;;;20.14;100.00
7990;BME280;4040;42.848;23.034;2022-07-10T17:29:40;94720.94;;;20.11;100.00
7990;BME280;4040;42.848;23.034;2022-07-10T17:35:30;94744.03;;;20.33;100.00
7990;BME280;4040;42.848;23.034;2022-07-10T17:41:19;94743.28;;;20.33;100.00
7990;BME280;4040;42.848;23.034;2022-07-10T17:47:08;94745.13;;;20.27;100.00
7990;BME280;4040;42.848;23.034;2022-07-10T17:52:58;94745.13;;;20.27;100.00
7990;BME280;4040;42.848;23.034;2022-07-10T17:58:47;94745.91;;;20.27;100.00
7990;BME280;4040;42.848;23.034;2022-07-10T18:04:36;94759.47;;;20.22;100.00
7990;BME280;4040;42.848;23.034;2022-07-10T18:10:26;94758.63;;;19.98;100.00
7990;BME280;4040;42.848;23.034;2022-07-10T18:16:15;94758.41;;;19.78;100.00
7990;BME280;4040;42.848;23.034;2022-07-10T18:22:05;94768.72;;;19.74;100.00
7990;BME280;4040;42.848;23.034;2022-07-10T18:32:18;94777.00;;;19.56;100.00
7990;BME280;4040;42.848;23.034;2022-07-10T18:38:28;94788.84;;;19.44;100.00
7990;BME280;4040;42.848;23.034;2022-07-10T18:44:16;94783.84;;;19.42;100.00
7990;BME280;4040;42.848;23.034;2022-07-10T18:50:08;94798.25;;;19.43;100.00
7990;BME280;4040;42.848;23.034;2022-07-10T18:55:57;94813.91;;;19.42;100.00
7990;BME280;4040;42.848;23.034;2022-07-10T19:01:46;94824.06;;;19.24;100.00
7990;BME280;4040;42.848;23.034;2022-07-10T19:07:36;94809.78;;;18.93;100.00
7990;BME280;4040;42.848;23.034;2022-07-10T19:13:25;94833.72;;;18.62;100.00
7990;BME280;4040;42.848;23.034;2022-07-10T19:19:14;94840.34;;;18.52;100.00
7990;BME280;4040;42.848;23.034;2022-07-10T19:25:05;94843.31;;;18.36;100.00
7990;BME280;4040;42.848;23.034;2022-07-10T19:35:15;94858.41;;;18.28;100.00
7990;BME280;4040;42.848;23.034;2022-07-10T19:41:06;94866.28;;;18.26;100.00
7990;BME280;4040;42.848;23.034;2022-07-10T19:46:56;94876.56;;;18.22;100.00
7990;BME280;4040;42.848;23.034;2022-07-10T19:52:44;94818.75;;;17.66;100.00
7990;BME280;4040;42.848;23.034;2022-07-10T19:58:35;94875.22;;;17.96;100.00
7990;BME280;4040;42.848;23.034;2022-07-10T20:04:23;94880.06;;;17.92;100.00
7990;BME280;4040;42.848;23.034;2022-07-10T20:10:12;94883.94;;;17.82;100.00
7990;BME280;4040;42.848;23.034;2022-07-10T20:16:03;94891.72;;;17.71;100.00
7990;BME280;4040;42.848;23.034;2022-07-10T20:21:52;94903.19;;;17.66;100.00
7990;BME280;4040;42.848;23.034;2022-07-10T20:27:41;94900.97;;;17.52;100.00
7990;BME280;4040;42.848;23.034;2022-07-10T20:37:53;94898.66;;;17.29;100.00
7990;BME280;4040;42.848;23.034;2022-07-10T20:43:42;94904.56;;;17.15;100.00
7990;BME280;4040;42.848;23.034;2022-07-10T20:49:31;94898.78;;;16.79;100.00
7990;BME280;4040;42.848;23.034;2022-07-10T20:55:21;94916.09;;;16.23;100.00
7990;BME280;4040;42.848;23.034;2022-07-10T21:01:10;94913.13;;;15.92;100.00
7990;BME280;4040;42.848;23.034;2022-07-10T21:06:59;94866.63;;;15.37;100.00
7990;BME280;4040;42.848;23.034;2022-07-10T21:12:49;94918.28;;;15.33;100.00
7990;BME280;4040;42.848;23.034;2022-07-10T21:18:37;94915.06;;;15.07;100.00
7990;BME280;4040;42.848;23.034;2022-07-10T21:24:26;94930.00;;;15.15;100.00
7990;BME280;4040;42.848;23.034;2022-07-10T21:30:16;94928.84;;;15.00;100.00
7990;BME280;4040;42.848;23.034;2022-07-10T21:40:27;94918.97;;;15.06;100.00
7990;BME280;4040;42.848;23.034;2022-07-10T21:46:17;94916.66;;;15.20;100.00
7990;BME280;4040;42.848;23.034;2022-07-10T21:52:07;94914.63;;;14.80;100.00
7990;BME280;4040;42.848;23.034;2022-07-10T21:57:55;94915.47;;;14.45;100.00
7990;BME280;4040;42.848;23.034;2022-07-10T22:08:38;94916.34;;;13.87;100.00
7990;BME280;4040;42.848;23.034;2022-07-10T22:14:26;94930.44;;;13.98;100.00
7990;BME280;4040;42.848;23.034;2022-07-10T22:20:16;94931.94;;;13.99;100.00
7990;BME280;4040;42.848;23.034;2022-07-10T22:26:07;94941.19;;;14.01;100.00
7990;BME280;4040;42.848;23.034;2022-07-10T22:31:55;94920.19;;;13.70;100.00
7990;BME280;4040;42.848;23.034;2022-07-10T22:37:44;94923.31;;;13.68;100.00
7990;BME280;4040;42.848;23.034;2022-07-10T22:43:34;94955.75;;;13.72;100.00
7990;BME280;4040;42.848;23.034;2022-07-10T22:49:24;94943.03;;;13.69;100.00
7990;BME280;4040;42.848;23.034;2022-07-10T22:55:12;94943.94;;;13.82;100.00
7990;BME280;4040;42.848;23.034;2022-07-10T23:01:04;94951.38;;;14.13;100.00
7990;BME280;4040;42.848;23.034;2022-07-10T23:06:55;94950.97;;;13.95;100.00
7990;BME280;4040;42.848;23.034;2022-07-10T23:12:44;94950.38;;;13.88;100.00
7990;BME280;4040;42.848;23.034;2022-07-10T23:18:34;94953.34;;;13.93;100.00
7990;BME280;4040;42.848;23.034;2022-07-10T23:24:23;94952.19;;;13.75;100.00
7990;BME280;4040;42.848;23.034;2022-07-10T23:30:12;94953.78;;;13.53;100.00
7990;BME280;4040;42.848;23.034;2022-07-10T23:36:02;94953.00;;;13.33;100.00
7990;BME280;4040;42.848;23.034;2022-07-10T23:41:51;94959.59;;;13.32;100.00
7990;BME280;4040;42.848;23.034;2022-07-10T23:48:10;94960.06;;;13.27;100.00
7990;BME280;4040;42.848;23.034;2022-07-10T23:54:20;94964.13;;;13.38;100.00
